Time;durP1;ratioP1;P1;durP2;ratioP2;P2;SDS_P1;SDS_P2;PMS_P1;PMS_P2;Temp;Humidity;BMP_temperature;BMP_pressure;BME280_temperature;BME280_humidity;BME280_pressure;Samples;Min_cycle;Max_cycle;Signal;HPM_P1;HPM_P2
2020/12/24 00:02:06;204912.00;0.68;354.38;0.00;0.00;0.62;;;;;15.20;1.00;;;;;;2265276;61;1178;-86
2020/12/24 00:04:32;200599.00;0.67;346.95;0.00;0.00;0.62;;;;;15.30;1.00;;;;;;2268513;61;1236;-86
2020/12/24 00:06:59;180065.00;0.60;311.60;0.00;0.00;0.62;;;;;15.50;1.00;;;;;;2275212;61;1514;-86
2020/12/24 00:09:25;215537.00;0.72;372.66;0.00;0.00;0.62;;;;;15.50;1.00;;;;;;2275007;61;1919;-86
2020/12/24 00:11:55;278926.00;0.93;481.69;0.00;0.00;0.62;;;;;15.60;1.00;;;;;;2274487;61;1211;-86
2020/12/24 00:14:21;166175.00;0.55;287.68;0.00;0.00;0.62;;;;;15.80;1.00;;;;;;2274994;61;1201;-86
2020/12/24 00:16:48;148046.00;0.49;256.44;0.00;0.00;0.62;;;;;16.00;1.00;;;;;;2272945;61;1309;-87
2020/12/24 00:19:14;145418.00;0.48;251.91;0.00;0.00;0.62;;;;;16.10;1.00;;;;;;2283812;61;1142;-88
2020/12/24 00:21:41;287555.00;0.96;496.53;0.00;0.00;0.62;;;;;16.10;1.00;;;;;;2284092;61;1195;-87
2020/12/24 00:24:08;286352.00;0.95;494.46;0.00;0.00;0.62;;;;;16.30;1.00;;;;;;2284276;61;1251;-86
2020/12/24 00:26:34;130044.00;0.43;225.41;0.00;0.00;0.62;;;;;16.20;1.00;;;;;;2277215;61;1188;-87
2020/12/24 00:29:06;228029.00;0.76;394.16;0.00;0.00;0.62;;;;;16.40;1.00;;;;;;2277222;61;1935;-86
2020/12/24 00:31:33;358235.00;1.19;618.02;104753.00;0.35;181.78;;;;;16.30;1.00;;;;;;2277185;61;1219;-88
2020/12/24 00:34:00;107854.00;0.36;187.13;0.00;0.00;0.62;;;;;16.10;1.00;;;;;;2278519;61;1270;-86
2020/12/24 00:36:26;51013.00;0.17;88.94;0.00;0.00;0.62;;;;;16.30;1.00;;;;;;2275184;61;1259;-86
2020/12/24 00:38:53;64619.00;0.22;112.46;0.00;0.00;0.62;;;;;16.50;1.00;;;;;;2271694;61;1381;-86
2020/12/24 00:41:20;236161.00;0.79;408.15;0.00;0.00;0.62;;;;;16.60;1.00;;;;;;2275527;61;1136;-86
2020/12/24 00:43:47;52946.00;0.18;92.28;0.00;0.00;0.62;;;;;16.60;1.00;;;;;;2278980;61;1196;-87
2020/12/24 00:46:14;97103.00;0.32;168.57;0.00;0.00;0.62;;;;;16.40;1.00;;;;;;2279264;61;1140;-86
2020/12/24 00:48:41;188786.00;0.63;326.62;0.00;0.00;0.62;;;;;16.30;1.00;;;;;;2279344;61;1921;-86
2020/12/24 00:51:07;321183.00;1.07;554.33;29532.00;0.10;51.77;;;;;16.50;1.00;;;;;;2278762;61;1213;-86
2020/12/24 00:53:34;63460.00;0.21;110.46;0.00;0.00;0.62;;;;;16.50;1.00;;;;;;2283495;61;1235;-86
2020/12/24 00:56:00;308801.00;1.03;533.05;0.00;0.00;0.62;;;;;16.70;1.00;;;;;;2283706;61;1873;-86
2020/12/24 00:58:27;263078.00;0.88;454.44;0.00;0.00;0.62;;;;;16.70;1.00;;;;;;2284135;61;1405;-86
2020/12/24 01:00:54;207952.00;0.69;359.61;0.00;0.00;0.62;;;;;16.70;1.00;;;;;;2284066;61;1182;-86
2020/12/24 01:03:21;148015.00;0.49;256.39;0.00;0.00;0.62;;;;;16.50;1.00;;;;;;2277028;61;1164;-87
2020/12/24 01:05:47;313541.00;1.05;541.20;0.00;0.00;0.62;;;;;16.50;1.00;;;;;;2273511;61;1279;-86
2020/12/24 01:08:14;166860.00;0.56;288.86;0.00;0.00;0.62;;;;;16.40;1.00;;;;;;2283981;60;1367;-86
2020/12/24 01:10:40;165973.00;0.55;287.33;0.00;0.00;0.62;;;;;16.20;1.00;;;;;;2277292;61;1928;-87
2020/12/24 01:13:07;101797.00;0.34;176.67;0.00;0.00;0.62;;;;;16.30;1.00;;;;;;2284821;61;1218;-86
2020/12/24 01:15:33;104832.00;0.35;181.91;0.00;0.00;0.62;;;;;16.30;1.00;;;;;;2276453;61;1168;-87
2020/12/24 01:18:00;244766.00;0.82;422.95;0.00;0.00;0.62;;;;;15.70;1.00;;;;;;2269268;61;1457;-86
2020/12/24 01:20:27;142069.00;0.47;246.14;0.00;0.00;0.62;;;;;15.50;1.00;;;;;;2268863;61;1247;-86
2020/12/24 01:22:53;257605.00;0.86;445.03;0.00;0.00;0.62;;;;;14.40;1.00;;;;;;2275257;61;1199;-86
2020/12/24 01:25:20;172568.00;0.58;298.69;0.00;0.00;0.62;;;;;14.00;1.00;;;;;;2268693;61;1272;-84
2020/12/24 01:27:46;136088.00;0.45;235.83;0.00;0.00;0.62;;;;;13.40;1.00;;;;;;2275395;61;1467;-84
2020/12/24 01:30:13;243473.00;0.81;420.72;0.00;0.00;0.62;;;;;13.60;1.00;;;;;;2268680;61;1918;-87
2020/12/24 01:32:39;198094.00;0.66;342.64;0.00;0.00;0.62;;;;;13.30;1.00;;;;;;2269774;61;1240;-86
2020/12/24 01:35:06;145571.00;0.49;252.17;0.00;0.00;0.62;;;;;13.20;1.00;;;;;;2280754;60;1186;-86
2020/12/24 01:37:35;199363.00;0.66;344.83;0.00;0.00;0.62;;;;;13.60;1.00;;;;;;2277723;61;1473;-85
2020/12/24 01:40:01;223960.00;0.75;387.16;0.00;0.00;0.62;;;;;13.50;1.00;;;;;;2284979;61;1166;-85
2020/12/24 01:42:28;178067.00;0.59;308.16;0.00;0.00;0.62;;;;;13.20;1.00;;;;;;2274434;61;1331;-86
2020/12/24 01:44:54;163497.00;0.54;283.06;0.00;0.00;0.62;;;;;13.10;1.00;;;;;;2285009;60;1207;-86
2020/12/24 01:47:22;229612.00;0.77;396.88;0.00;0.00;0.62;;;;;13.30;1.00;;;;;;2280603;61;1450;-86
2020/12/24 01:49:48;187885.00;0.63;325.07;0.00;0.00;0.62;;;;;12.90;1.00;;;;;;2280714;61;1992;-86
2020/12/24 01:52:28;148144.00;0.49;256.61;0.00;0.00;0.62;;;;;12.50;1.00;;;;;;2270365;61;1171;-87
2020/12/24 01:54:56;136138.00;0.45;235.91;0.00;0.00;0.62;;;;;12.40;1.00;;;;;;2276538;61;1200;-87
2020/12/24 01:57:23;4280.00;0.01;8.04;0.00;0.00;0.62;;;;;12.60;1.00;;;;;;2276651;61;1448;-87
2020/12/24 01:59:49;175541.00;0.59;303.81;0.00;0.00;0.62;;;;;12.70;1.00;;;;;;2269910;61;1056;-87
2020/12/24 02:02:16;76147.00;0.25;132.38;0.00;0.00;0.62;;;;;12.70;1.00;;;;;;2272421;61;1263;-86
2020/12/24 02:04:42;61182.00;0.20;106.52;0.00;0.00;0.62;;;;;12.80;1.00;;;;;;2263463;61;1141;-86
2020/12/24 02:07:09;76791.00;0.26;133.49;0.00;0.00;0.62;;;;;12.90;1.00;;;;;;2269835;61;1467;-86
2020/12/24 02:09:35;28011.00;0.09;49.14;0.00;0.00;0.62;;;;;13.00;1.00;;;;;;2269957;61;1997;-87
2020/12/24 02:12:04;107630.00;0.36;186.74;0.00;0.00;0.62;;;;;13.40;1.00;;;;;;2270305;61;1104;-87
2020/12/24 02:14:30;213886.00;0.71;369.82;27739.00;0.09;48.67;;;;;13.00;1.00;;;;;;2280631;61;1080;-85
2020/12/24 02:16:56;242099.00;0.81;418.36;48660.00;0.16;84.87;;;;;12.70;1.00;;;;;;2280638;61;1554;-86
2020/12/24 02:19:23;138150.00;0.46;239.38;0.00;0.00;0.62;;;;;12.80;1.00;;;;;;2274250;61;1027;-86
2020/12/24 02:21:50;154497.00;0.51;267.56;0.00;0.00;0.62;;;;;12.80;1.00;;;;;;2274533;61;1078;-86
2020/12/24 02:24:17;444780.00;1.48;766.80;22022.00;0.07;38.77;;;;;13.00;1.00;;;;;;2281193;60;1217;-87
2020/12/24 02:26:43;127326.00;0.42;220.72;0.00;0.00;0.62;;;;;13.20;1.00;;;;;;2281218;60;1457;-86
2020/12/24 02:29:10;160472.00;0.53;277.85;0.00;0.00;0.62;;;;;13.60;1.00;;;;;;2277552;60;1972;-86
2020/12/24 02:31:36;194523.00;0.65;336.50;0.00;0.00;0.62;;;;;13.70;1.00;;;;;;2284818;61;1187;-86
2020/12/24 02:34:03;201183.00;0.67;347.96;0.00;0.00;0.62;;;;;13.90;1.00;;;;;;2284628;61;1266;-86
2020/12/24 02:36:29;151278.00;0.50;262.01;0.00;0.00;0.62;;;;;14.00;1.00;;;;;;2277623;61;1306;-85
2020/12/24 02:38:57;223261.00;0.74;385.95;0.00;0.00;0.62;;;;;13.90;1.00;;;;;;2276002;61;1458;-85
2020/12/24 02:41:23;131707.00;0.44;228.27;0.00;0.00;0.62;;;;;13.90;1.00;;;;;;2269344;61;1199;-86
2020/12/24 02:43:50;258281.00;0.86;446.19;0.00;0.00;0.62;;;;;13.90;1.00;;;;;;2269439;61;1267;-86
2020/12/24 02:46:17;435033.00;1.45;750.04;21986.00;0.07;38.71;;;;;13.60;1.00;;;;;;2269499;61;1174;-86
2020/12/24 02:48:44;273486.00;0.91;472.34;0.00;0.00;0.62;;;;;13.20;1.00;;;;;;2275947;61;1988;-86
2020/12/24 02:51:11;258936.00;0.86;447.32;0.00;0.00;0.62;;;;;13.10;1.00;;;;;;2275787;61;1200;-86
2020/12/24 02:53:37;238659.00;0.80;412.44;0.00;0.00;0.62;;;;;13.20;1.00;;;;;;2275853;61;1124;-85
2020/12/24 02:56:05;318080.00;1.06;549.00;32489.00;0.11;56.89;;;;;13.50;1.00;;;;;;2267737;61;1117;-86
2020/12/24 02:58:31;119100.00;0.40;206.53;0.00;0.00;0.62;;;;;13.70;1.00;;;;;;2274940;61;1502;-86
2020/12/24 03:00:58;127160.00;0.42;220.43;0.00;0.00;0.62;;;;;13.50;1.00;;;;;;2265070;61;1394;-86
2020/12/24 03:03:25;174326.00;0.58;301.72;0.00;0.00;0.62;;;;;13.50;1.00;;;;;;2268546;61;1264;-86
2020/12/24 03:05:52;260583.00;0.87;450.15;0.00;0.00;0.62;;;;;13.20;1.00;;;;;;2271432;61;1283;-86
2020/12/24 03:08:18;179289.00;0.60;310.27;0.00;0.00;0.62;;;;;13.10;1.00;;;;;;2268195;61;1326;-86
2020/12/24 03:10:45;192465.00;0.64;332.95;0.00;0.00;0.62;;;;;13.30;1.00;;;;;;2275448;61;1955;-86
2020/12/24 03:13:13;205720.00;0.69;355.77;0.00;0.00;0.62;;;;;13.40;1.00;;;;;;2276692;61;1203;-86
2020/12/24 03:15:40;25396.00;0.08;44.61;0.00;0.00;0.62;;;;;13.30;1.00;;;;;;2276676;61;1195;-85
2020/12/24 03:18:06;110930.00;0.37;192.43;0.00;0.00;0.62;;;;;12.90;1.00;;;;;;2284014;60;1391;-86
2020/12/24 03:20:33;143766.00;0.48;249.06;12281.00;0.04;21.90;;;;;13.30;1.00;;;;;;2283662;61;1131;-86
2020/12/24 03:22:59;331246.00;1.10;571.63;0.00;0.00;0.62;;;;;13.80;1.00;;;;;;2283959;61;1752;-86
2020/12/24 03:25:27;249241.00;0.83;430.65;0.00;0.00;0.62;;;;;14.10;1.00;;;;;;2283834;61;1183;-86
2020/12/24 03:27:53;200095.00;0.67;346.09;0.00;0.00;0.62;;;;;14.10;1.00;;;;;;2276188;61;1363;-86
2020/12/24 03:30:20;264274.00;0.88;456.50;0.00;0.00;0.62;;;;;14.20;1.00;;;;;;2283470;61;2000;-86
2020/12/24 03:32:47;182217.00;0.61;315.31;0.00;0.00;0.62;;;;;13.90;1.00;;;;;;2275085;61;1124;-86
2020/12/24 03:35:13;229746.00;0.77;397.11;0.00;0.00;0.62;;;;;14.10;1.00;;;;;;2276208;61;1027;-86
2020/12/24 03:37:40;248722.00;0.83;429.75;0.00;0.00;0.62;;;;;14.30;1.00;;;;;;2269403;61;1388;-86
2020/12/24 03:40:06;377658.00;1.26;651.40;0.00;0.00;0.62;;;;;14.40;1.00;;;;;;2267312;61;1243;-86
2020/12/24 03:42:34;291524.00;0.97;503.35;0.00;0.00;0.62;;;;;14.50;1.00;;;;;;2266795;61;1246;-86
2020/12/24 03:45:00;210560.00;0.70;364.10;0.00;0.00;0.62;;;;;14.70;1.00;;;;;;2263424;61;1259;-86
2020/12/24 03:47:28;344261.00;1.15;594.00;0.00;0.00;0.62;;;;;14.80;1.00;;;;;;2267656;61;1409;-86
2020/12/24 03:49:54;121528.00;0.41;210.72;0.00;0.00;0.62;;;;;14.70;1.00;;;;;;2268595;61;2005;-86
2020/12/24 03:52:21;106056.00;0.35;184.02;0.00;0.00;0.62;;;;;14.40;1.00;;;;;;2265791;61;1182;-86
2020/12/24 03:54:47;253996.00;0.85;438.82;0.00;0.00;0.62;;;;;14.40;1.00;;;;;;2268691;61;1295;-86
2020/12/24 03:57:14;232201.00;0.77;401.34;0.00;0.00;0.62;;;;;14.30;1.00;;;;;;2268001;61;1265;-86
2020/12/24 03:59:40;207853.00;0.69;359.44;0.00;0.00;0.62;;;;;13.90;1.00;;;;;;2275309;61;1222;-86
2020/12/24 04:02:06;221166.00;0.74;382.35;0.00;0.00;0.62;;;;;13.50;1.00;;;;;;2271552;61;1207;-86
2020/12/24 04:04:34;195034.00;0.65;337.38;0.00;0.00;0.62;;;;;13.10;1.00;;;;;;2271521;61;1192;-86
2020/12/24 04:07:00;309542.00;1.03;534.32;0.00;0.00;0.62;;;;;12.60;1.00;;;;;;2264950;61;1385;-86
2020/12/24 04:09:27;400367.00;1.33;690.44;30952.00;0.10;54.23;;;;;12.00;1.00;;;;;;2264889;61;1923;-86
2020/12/24 04:11:53;363703.00;1.21;627.41;0.00;0.00;0.62;;;;;11.70;1.00;;;;;;2271370;61;1116;-86
2020/12/24 04:14:20;266762.00;0.89;460.78;0.00;0.00;0.62;;;;;12.00;1.00;;;;;;2272583;61;1200;-86
2020/12/24 04:16:46;260274.00;0.87;449.62;0.00;0.00;0.62;;;;;12.20;1.00;;;;;;2272790;61;1352;-86
2020/12/24 04:19:13;201152.00;0.67;347.91;0.00;0.00;0.62;;;;;12.20;1.00;;;;;;2266994;61;1164;-85
2020/12/24 04:21:40;288003.00;0.96;497.30;0.00;0.00;0.62;;;;;12.10;1.00;;;;;;2284499;61;1211;-85
2020/12/24 04:24:06;257316.00;0.86;444.53;0.00;0.00;0.62;;;;;12.30;1.00;;;;;;2271071;61;1244;-85
2020/12/24 04:26:33;293255.00;0.98;506.33;0.00;0.00;0.62;;;;;12.50;1.00;;;;;;2276252;61;1204;-85
2020/12/24 04:29:00;237567.00;0.79;410.57;0.00;0.00;0.62;;;;;12.60;1.00;;;;;;2269937;61;1911;-85
2020/12/24 04:31:27;211190.00;0.70;365.18;0.00;0.00;0.62;;;;;13.00;1.00;;;;;;2266680;61;1292;-85
2020/12/24 04:33:53;67389.00;0.22;117.25;0.00;0.00;0.62;;;;;12.90;1.00;;;;;;2266812;61;1197;-86
2020/12/24 04:36:20;249446.00;0.83;431.00;0.00;0.00;0.62;;;;;13.00;1.00;;;;;;2276861;61;1184;-86
2020/12/24 04:38:47;316597.00;1.06;546.45;0.00;0.00;0.62;;;;;13.20;1.00;;;;;;2273325;61;1477;-84
2020/12/24 04:41:14;228282.00;0.76;394.59;0.00;0.00;0.62;;;;;13.50;1.00;;;;;;2273725;61;1282;-85
2020/12/24 04:43:41;249137.00;0.83;430.47;0.00;0.00;0.62;;;;;13.50;1.00;;;;;;2279443;61;1132;-85
2020/12/24 04:46:10;274656.00;0.92;474.35;0.00;0.00;0.62;;;;;13.40;1.00;;;;;;2280070;61;1246;-86
2020/12/24 04:48:39;401235.00;1.34;691.93;0.00;0.00;0.62;;;;;12.50;1.00;;;;;;2273948;61;1467;-86
2020/12/24 04:51:09;231495.00;0.77;400.12;0.00;0.00;0.62;;;;;11.90;1.00;;;;;;2280641;60;2011;-87
2020/12/24 04:53:37;348637.00;1.16;601.52;0.00;0.00;0.62;;;;;11.80;1.00;;;;;;2280801;61;1009;-87
2020/12/24 05:04:21;9672.00;0.03;17.38;0.00;0.00;0.62;;;;;11.90;1.00;;;;;;2285418;61;1481;-85
2020/12/24 05:06:48;0.00;0.00;0.62;0.00;0.00;0.62;;;;;12.30;1.00;;;;;;2283901;61;1287;-86
2020/12/24 05:09:16;0.00;0.00;0.62;0.00;0.00;0.62;;;;;12.00;1.00;;;;;;2275388;61;1931;-86
2020/12/24 05:11:44;0.00;0.00;0.62;0.00;0.00;0.62;;;;;12.10;1.00;;;;;;2267046;61;1188;-87
2020/12/24 05:14:18;0.00;0.00;0.62;0.00;0.00;0.62;;;;;12.00;1.00;;;;;;2267088;61;1187;-86
2020/12/24 05:17:00;1407.00;0.00;3.06;0.00;0.00;0.62;;;;;12.30;1.00;;;;;;2266878;61;1390;-85
2020/12/24 05:19:30;0.00;0.00;0.62;0.00;0.00;0.62;;;;;12.40;1.00;;;;;;2263670;61;1266;-85
2020/12/24 05:21:57;17310.00;0.06;30.61;0.00;0.00;0.62;;;;;11.90;1.00;;;;;;2263830;61;1268;-85
2020/12/24 05:24:25;105353.00;0.35;182.81;0.00;0.00;0.62;;;;;11.30;1.00;;;;;;2263223;61;1178;-86
2020/12/24 05:26:54;0.00;0.00;0.62;0.00;0.00;0.62;;;;;11.60;1.00;;;;;;2265694;61;1372;-84
2020/12/24 05:29:21;0.00;0.00;0.62;0.00;0.00;0.62;;;;;11.80;1.00;;;;;;2277538;61;2022;-86
2020/12/24 05:31:53;25336.00;0.08;44.51;0.00;0.00;0.62;;;;;12.00;1.00;;;;;;2283010;61;1204;-85
2020/12/24 05:34:20;102501.00;0.34;177.89;0.00;0.00;0.62;;;;;12.40;1.00;;;;;;2278797;61;1308;-86
2020/12/24 05:36:48;26083.00;0.09;45.80;0.00;0.00;0.62;;;;;12.80;1.00;;;;;;2275279;61;1400;-85
2020/12/24 05:39:15;36347.00;0.12;63.57;0.00;0.00;0.62;;;;;13.00;1.00;;;;;;2282513;61;1211;-86
2020/12/24 05:41:41;84003.00;0.28;145.95;0.00;0.00;0.62;;;;;12.90;1.00;;;;;;2273435;61;1247;-85
2020/12/24 05:44:10;0.00;0.00;0.62;0.00;0.00;0.62;;;;;12.90;1.00;;;;;;2266718;61;1184;-86
2020/12/24 05:46:42;30834.00;0.10;54.03;0.00;0.00;0.62;;;;;12.40;1.00;;;;;;2266829;61;1351;-86
2020/12/24 05:49:12;164494.00;0.55;284.78;10063.00;0.03;18.06;;;;;12.10;1.00;;;;;;2265603;61;2018;-86
2020/12/24 05:51:39;56336.00;0.19;98.14;0.00;0.00;0.62;;;;;12.00;1.00;;;;;;2265244;61;1172;-86
2020/12/24 05:54:07;37246.00;0.12;65.12;0.00;0.00;0.62;;;;;12.30;1.00;;;;;;2265041;61;1133;-85
2020/12/24 05:56:37;95335.00;0.32;165.52;0.00;0.00;0.62;;;;;12.20;1.00;;;;;;2265561;61;1211;-86
2020/12/24 05:59:05;0.00;0.00;0.62;0.00;0.00;0.62;;;;;12.40;1.00;;;;;;2258565;61;1098;-85
2020/12/24 06:01:39;98456.00;0.33;170.91;28879.00;0.10;50.64;;;;;12.30;1.00;;;;;;2258844;61;1236;-86
2020/12/24 06:04:07;0.00;0.00;0.62;0.00;0.00;0.62;;;;;12.40;1.00;;;;;;2259078;61;1180;-86
2020/12/24 06:06:45;56661.00;0.19;98.70;0.00;0.00;0.62;;;;;12.40;1.00;;;;;;2259399;61;1164;-86
2020/12/24 06:09:16;54128.00;0.18;94.32;0.00;0.00;0.62;;;;;12.10;1.00;;;;;;2258655;61;1946;-85
2020/12/24 06:11:52;40431.00;0.13;70.63;0.00;0.00;0.62;;;;;12.10;1.00;;;;;;2258367;61;1161;-86
2020/12/24 06:14:32;0.00;0.00;0.62;0.00;0.00;0.62;;;;;12.20;1.00;;;;;;2265485;61;1211;-85
2020/12/24 06:17:04;133074.00;0.44;230.63;23460.00;0.08;41.26;;;;;12.10;1.00;;;;;;2259371;61;1442;-85
2020/12/24 06:19:37;145469.00;0.48;252.00;0.00;0.00;0.62;;;;;11.70;1.00;;;;;;2258148;61;1174;-84
2020/12/24 06:22:04;70321.00;0.23;122.32;0.00;0.00;0.62;;;;;11.70;1.00;;;;;;2261960;61;1248;-85
2020/12/24 06:24:33;53445.00;0.18;93.14;0.00;0.00;0.62;;;;;11.90;1.00;;;;;;2260099;61;1126;-85
2020/12/24 06:27:05;19621.00;0.07;34.61;0.00;0.00;0.62;;;;;11.80;1.00;;;;;;2267032;61;1417;-85
2020/12/24 06:29:37;294394.00;0.98;508.28;50157.00;0.17;87.46;;;;;11.60;1.00;;;;;;2274471;61;1921;-84
2020/12/24 06:32:08;63141.00;0.21;109.91;0.00;0.00;0.62;;;;;11.80;1.00;;;;;;2266341;61;1247;-84
2020/12/24 06:34:40;91297.00;0.30;158.55;0.00;0.00;0.62;;;;;11.40;1.00;;;;;;2275232;61;1210;-84
2020/12/24 06:37:15;0.00;0.00;0.62;0.00;0.00;0.62;;;;;11.50;1.00;;;;;;2281011;61;1342;-85
2020/12/24 06:39:45;82213.00;0.27;142.86;0.00;0.00;0.62;;;;;11.50;1.00;;;;;;2281761;61;1132;-85
2020/12/24 06:42:41;84789.00;0.28;147.31;0.00;0.00;0.62;;;;;11.40;1.00;;;;;;2278332;61;1290;-85
2020/12/24 06:45:10;0.00;0.00;0.62;0.00;0.00;0.62;;;;;11.50;1.00;;;;;;2281621;61;1219;-85
2020/12/24 06:47:37;17518.00;0.06;30.97;0.00;0.00;0.62;;;;;11.70;1.00;;;;;;2272341;61;1321;-84
2020/12/24 06:50:35;1630.00;0.01;3.45;0.00;0.00;0.62;;;;;11.70;1.00;;;;;;2263585;61;2010;-85
2020/12/24 06:53:21;116369.00;0.39;201.82;7088.00;0.02;12.90;;;;;11.40;1.00;;;;;;2272804;61;1258;-84
2020/12/24 06:56:18;94411.00;0.31;163.92;0.00;0.00;0.62;;;;;11.10;1.00;;;;;;2266152;61;1200;-84
2020/12/24 06:58:48;20809.00;0.07;36.67;0.00;0.00;0.62;;;;;11.30;1.00;;;;;;2266515;61;1468;-85
2020/12/24 07:01:15;65994.00;0.22;114.84;0.00;0.00;0.62;;;;;11.20;1.00;;;;;;2273051;61;1265;-85
2020/12/24 07:03:42;58604.00;0.20;102.06;0.00;0.00;0.62;;;;;11.00;1.00;;;;;;2273319;61;1131;-84
2020/12/24 07:06:09;0.00;0.00;0.62;0.00;0.00;0.62;;;;;10.90;1.00;;;;;;2279222;61;1845;-86
2020/12/24 07:08:49;74177.00;0.25;128.98;0.00;0.00;0.62;;;;;10.60;1.00;;;;;;2275993;61;1368;-86
2020/12/24 07:11:41;0.00;0.00;0.62;0.00;0.00;0.62;;;;;10.50;1.00;;;;;;2275745;61;1935;-85
2020/12/24 07:14:27;63664.00;0.21;110.81;0.00;0.00;0.62;;;;;10.50;1.00;;;;;;2282676;61;1163;-85
2020/12/24 07:16:54;331786.00;1.11;572.56;30978.00;0.10;54.28;;;;;10.80;1.00;;;;;;2282147;61;1347;-84
2020/12/24 07:19:21;201132.00;0.67;347.87;67432.00;0.22;117.32;;;;;10.90;1.00;;;;;;2277249;61;1168;-85
2020/12/24 07:21:50;0.00;0.00;0.62;0.00;0.00;0.62;;;;;11.10;1.00;;;;;;2273137;61;1223;-84
2020/12/24 07:24:26;58395.00;0.19;101.70;0.00;0.00;0.62;;;;;11.50;1.00;;;;;;2274233;61;1260;-85
2020/12/24 07:26:56;0.00;0.00;0.62;0.00;0.00;0.62;;;;;11.40;1.00;;;;;;2272878;61;1334;-84
2020/12/24 07:29:24;0.00;0.00;0.62;0.00;0.00;0.62;;;;;11.70;1.00;;;;;;2274242;61;1920;-85
2020/12/24 07:31:52;19591.00;0.07;34.56;0.00;0.00;0.62;;;;;11.60;1.00;;;;;;2267389;61;1243;-85
2020/12/24 07:34:23;120895.00;0.40;209.63;33876.00;0.11;59.29;;;;;11.40;1.00;;;;;;2264213;61;1177;-85
2020/12/24 07:36:50;10143.00;0.03;18.20;0.00;0.00;0.62;;;;;11.10;1.00;;;;;;2267185;61;1339;-87
2020/12/24 07:39:16;0.00;0.00;0.62;0.00;0.00;0.62;;;;;10.80;1.00;;;;;;2262162;61;1267;-86
2020/12/24 07:41:43;51782.00;0.17;90.27;0.00;0.00;0.62;;;;;10.80;1.00;;;;;;2250224;61;1106;-86
2020/12/24 07:44:10;65676.00;0.22;114.29;0.00;0.00;0.62;;;;;10.70;1.00;;;;;;2252288;61;1196;-86
2020/12/24 07:46:36;111061.00;0.37;192.66;0.00;0.00;0.62;;;;;11.20;1.00;;;;;;2248715;61;1256;-86
2020/12/24 07:49:05;83945.00;0.28;145.85;0.00;0.00;0.62;;;;;11.10;1.00;;;;;;2258932;61;1201;-86
2020/12/24 07:51:32;54444.00;0.18;94.87;0.00;0.00;0.62;;;;;11.10;1.00;;;;;;2258841;61;1928;-85
2020/12/24 07:54:06;141603.00;0.47;245.33;7496.00;0.02;13.61;;;;;11.20;1.00;;;;;;2259686;61;1195;-85
2020/12/24 07:56:33;21021.00;0.07;37.04;0.00;0.00;0.62;;;;;11.30;1.00;;;;;;2259972;61;1255;-85
2020/12/24 07:59:01;59017.00;0.20;102.78;0.00;0.00;0.62;;;;;11.30;1.00;;;;;;2253850;61;1334;-85
2020/12/24 08:01:28;92530.00;0.31;160.68;0.00;0.00;0.62;;;;;11.30;1.00;;;;;;2270628;61;1250;-84
2020/12/24 08:03:59;112456.00;0.37;195.07;0.00;0.00;0.62;;;;;11.30;1.00;;;;;;2267404;61;1249;-84
2020/12/24 08:06:27;103749.00;0.35;180.04;6427.00;0.02;11.76;;;;;11.60;1.00;;;;;;2274820;61;1201;-84
2020/12/24 08:08:54;72979.00;0.24;126.91;0.00;0.00;0.62;;;;;11.80;1.00;;;;;;2282795;61;1509;-84
2020/12/24 08:11:20;189442.00;0.63;327.75;106.00;0.00;0.80;;;;;12.10;1.00;;;;;;2269294;61;2019;-84
2020/12/24 08:13:47;40659.00;0.14;71.03;0.00;0.00;0.62;;;;;11.40;1.00;;;;;;2270504;61;1156;-84
2020/12/24 08:16:14;0.00;0.00;0.62;0.00;0.00;0.62;;;;;11.20;1.00;;;;;;2264482;61;1166;-84
2020/12/24 08:18:46;88976.00;0.30;154.54;0.00;0.00;0.62;;;;;11.20;1.00;;;;;;2271843;61;1365;-87
2020/12/24 08:23:51;575647.00;1.92;992.19;0.00;0.00;0.62;;;;;11.20;1.00;;;;;;2290423;60;1372;-87
2020/12/24 08:28:54;564265.00;1.88;972.56;0.00;0.00;0.62;;;;;11.00;1.00;;;;;;2286361;60;1409;-90
2020/12/24 08:36:18;22226.00;0.07;39.12;0.00;0.00;0.62;;;;;12.40;1.00;;;;;;2285377;61;1407;-83
2020/12/24 08:38:45;12445.00;0.04;22.18;0.00;0.00;0.62;;;;;12.40;1.00;;;;;;2278664;61;1408;-84
2020/12/24 08:41:23;0.00;0.00;0.62;0.00;0.00;0.62;;;;;12.40;1.00;;;;;;2278931;61;1220;-84
2020/12/24 08:43:55;43929.00;0.15;76.69;0.00;0.00;0.62;;;;;12.60;1.00;;;;;;2266666;61;1236;-83
2020/12/24 08:46:22;108058.00;0.36;187.48;39696.00;0.13;69.36;;;;;12.90;1.00;;;;;;2258879;61;1152;-85
2020/12/24 08:48:49;143252.00;0.48;248.18;63961.00;0.21;111.32;;;;;12.00;1.00;;;;;;2259510;61;1480;-85
2020/12/24 08:51:18;0.00;0.00;0.62;0.00;0.00;0.62;;;;;11.50;1.00;;;;;;2251662;61;1949;-89
2020/12/24 08:56:14;204735.00;0.68;354.07;0.00;0.00;0.62;;;;;11.80;1.00;;;;;;2281877;61;1378;-86
2020/12/24 08:58:48;98125.00;0.33;170.34;0.00;0.00;0.62;;;;;12.10;1.00;;;;;;2280389;61;1401;-85
2020/12/24 09:01:15;0.00;0.00;0.62;0.00;0.00;0.62;;;;;11.30;1.00;;;;;;2271679;61;1125;-88
2020/12/24 09:03:43;41520.00;0.14;72.52;0.00;0.00;0.62;;;;;10.70;1.00;;;;;;2264383;61;948;-85
2020/12/24 09:06:12;0.00;0.00;0.62;0.00;0.00;0.62;;;;;10.70;1.00;;;;;;2263772;61;1065;-86
2020/12/24 09:08:40;177465.00;0.59;307.12;0.00;0.00;0.62;;;;;10.90;1.00;;;;;;2264353;61;1504;-86
2020/12/24 09:11:07;0.00;0.00;0.62;0.00;0.00;0.62;;;;;11.00;1.00;;;;;;2264485;61;2004;-86
2020/12/24 09:13:34;135481.00;0.45;234.78;0.00;0.00;0.62;;;;;10.70;1.00;;;;;;2263895;61;1124;-84
2020/12/24 09:16:10;42341.00;0.14;73.94;0.00;0.00;0.62;;;;;10.80;1.00;;;;;;2264229;61;1224;-86
2020/12/24 09:18:37;79287.00;0.26;137.81;0.00;0.00;0.62;;;;;10.50;1.00;;;;;;2262055;61;1419;-85
2020/12/24 09:21:10;0.00;0.00;0.62;0.00;0.00;0.62;;;;;10.50;1.00;;;;;;2270435;61;1148;-84
2020/12/24 09:23:37;11740.00;0.04;20.96;0.00;0.00;0.62;;;;;10.90;1.00;;;;;;2274887;61;1171;-85
2020/12/24 09:26:03;45739.00;0.15;79.82;0.00;0.00;0.62;;;;;11.00;1.00;;;;;;2269730;61;1139;-84
2020/12/24 09:28:30;106895.00;0.36;185.47;0.00;0.00;0.62;;;;;10.70;1.00;;;;;;2265765;61;1408;-85
2020/12/24 09:31:01;130034.00;0.43;225.39;0.00;0.00;0.62;;;;;10.60;1.00;;;;;;2265568;61;2012;-85
2020/12/24 09:33:28;167.00;0.00;0.91;0.00;0.00;0.62;;;;;10.60;1.00;;;;;;2267109;61;1127;-86
2020/12/24 09:35:54;217016.00;0.72;375.21;0.00;0.00;0.62;;;;;10.70;1.00;;;;;;2268114;61;1113;-85
2020/12/24 09:38:21;31912.00;0.11;55.89;0.00;0.00;0.62;;;;;10.80;1.00;;;;;;2268463;61;1397;-87
2020/12/24 09:40:48;0.00;0.00;0.62;0.00;0.00;0.62;;;;;10.60;1.00;;;;;;2266717;61;1122;-85
2020/12/24 09:43:14;20293.00;0.07;35.78;0.00;0.00;0.62;;;;;11.10;1.00;;;;;;2268329;61;1109;-86
2020/12/24 09:45:41;100862.00;0.34;175.06;0.00;0.00;0.62;;;;;11.20;1.00;;;;;;2275563;61;1212;-86
2020/12/24 09:48:09;22013.00;0.07;38.76;0.00;0.00;0.62;;;;;11.50;1.00;;;;;;2280941;61;1363;-85
2020/12/24 09:50:37;19451.00;0.06;34.32;0.00;0.00;0.62;;;;;11.80;1.00;;;;;;2280373;61;2014;-85
2020/12/24 09:53:04;5178.00;0.02;9.59;0.00;0.00;0.62;;;;;11.60;1.00;;;;;;2272669;61;1066;-86
2020/12/24 09:55:30;113742.00;0.38;197.29;19186.00;0.06;33.86;;;;;11.40;1.00;;;;;;2280163;61;937;-88
2020/12/24 09:57:57;31047.00;0.10;54.40;0.00;0.00;0.62;;;;;11.10;1.00;;;;;;2271395;61;1454;-86
2020/12/24 10:00:24;44187.00;0.15;77.13;0.00;0.00;0.62;;;;;11.10;1.00;;;;;;2271909;61;1144;-85
2020/12/24 10:02:51;0.00;0.00;0.62;0.00;0.00;0.62;;;;;11.00;1.00;;;;;;2264314;61;1193;-85
2020/12/24 10:05:19;44436.00;0.15;77.56;0.00;0.00;0.62;;;;;10.90;1.00;;;;;;2270525;61;1133;-85
2020/12/24 10:07:45;191512.00;0.64;331.31;0.00;0.00;0.62;;;;;10.90;1.00;;;;;;2262291;61;1385;-84
2020/12/24 10:10:12;41989.00;0.14;73.33;0.00;0.00;0.62;;;;;11.20;1.00;;;;;;2264066;61;1924;-88
2020/12/24 10:12:38;42264.00;0.14;73.81;0.00;0.00;0.62;;;;;11.00;1.00;;;;;;2263308;61;1260;-88
2020/12/24 10:15:05;0.00;0.00;0.62;0.00;0.00;0.62;;;;;10.80;1.00;;;;;;2264092;61;1244;-86
2020/12/24 10:17:31;41015.00;0.14;71.64;0.00;0.00;0.62;;;;;10.70;1.00;;;;;;2267356;61;1383;-86
2020/12/24 10:19:58;24063.00;0.08;42.31;0.00;0.00;0.62;;;;;10.50;1.00;;;;;;2267610;61;1823;-86
2020/12/24 10:22:25;92150.00;0.31;160.02;0.00;0.00;0.62;;;;;10.60;1.00;;;;;;2267456;61;1127;-85
2020/12/24 10:24:52;115870.00;0.39;200.96;0.00;0.00;0.62;;;;;10.80;1.00;;;;;;2268121;61;1219;-84
2020/12/24 10:27:19;174349.00;0.58;301.76;52795.00;0.18;92.02;;;;;11.20;1.00;;;;;;2274760;61;1724;-85
2020/12/24 10:29:46;26614.00;0.09;46.72;0.00;0.00;0.62;;;;;11.50;1.00;;;;;;2275987;61;2016;-85
2020/12/24 10:32:13;83408.00;0.28;144.92;0.00;0.00;0.62;;;;;11.50;1.00;;;;;;2280471;61;1743;-86